Startpagina
METAR-TAF:

METAR-TAF

Vliegvelden :

Bermuda, Bermuda

L.F. Wade International Airport

breedte: 32-22N, lengte: 064-41W, hoogte: 6 m

Actueel weer

Dit bericht is 52 minuten geleden gemaakt, om 02:55 UTC
Wind 15 kt uit het oosten
Temperatuur 21°C
Vochtigheid 64%
Druk 1026 hPa
Zicht 10 km of meer
Gebroken wolken op 4000 ft
Gebroken wolken op 30000 ft

METAR: TXKF 220255Z 10015KT 9999 BKN040 BKN300 21/14 Q1026

Tijdstip: 23:47 (03:47 UTC)

Verwachting

Dit bericht is 4 uur en het 17 minuten geleden gemaakt, om 23:30 UTC
Verwachting geldig van 22 om 00 UTC tot 22 om 24 UTC
Wind 17 kt uit het oosten
Zicht 10 km of meer
Weinig wolken op 2000 ft
Gebroken wolken op 4000 ft
Wijzigt naar
van 22 om 09 UTC tot 22 om 12 UTC
Wind 22 kt uit het zuidoosten
Tijdelijke
van 22 om 19 UTC tot 22 om 24 UTC
Wind 25 kt uit het zuidzuidoosten
Gebroken wolken op 1600 ft
lichte regenbuien

TAF: TXKF 212330Z 2200/2224 08017KT 9999 FEW020 BKN040 BECMG 2209/2212 13022KT TEMPO 2219/2224 16025KT -SHRA BKN016

Waarnemingen en weersverwachtingen van meer dan 4000 vliegvelden (METAR en TAF).

De beschikbare stations zijn de gele en rode punten op de kaart.

Ga met uw muis naar het station om de naam te zien.

Klik dan om waarnemingen en weersverwachtingen te zien.

kaart wijzigen: klik op de groene knoppen met een zwart kruis om in te zoomen, op de groene knop met een streepje om uit te zoomen of op de groene pijlen voor aangrenzende kaarten.


METAR-TAF: